AirNav   Everest Fuels
 
 1578 users online  

1DA
(formerly ID42)
Big Bar Airport
Lucile, Idaho, USA

GOING TO LUCILE?


FAA INFORMATION EFFECTIVE 28 FEBRUARY 2019

Location

FAA Identifier: 1DA
Lat/Long: 45-32-04.4800N / 116-31-51.3000W
45-32.074667N / 116-31.855000W
45.5345778 / -116.5309167
(estimated)
Elevation: 1236 ft. / 377 m (estimated)
From city: 9 miles W of LUCILE, ID
Time zone: UTC +0 (year round; does not observe DST)
Zip code: 83542

Airport Operations

Airport use: Open to the public
Activation date: 12/2016
Control tower: no
ARTCC: SEATTLE CENTER
FSS: BOISE FLIGHT SERVICE STATION
Attendance: 
Wind indicator: yes
Segmented circle: no

Airport Communications

CTAF: 122.9

Airport Services

Runway Information

Runway 17/35

Dimensions: 1203 x 30 ft. / 367 x 9 m
Surface: turf/dirt
RUNWAY 17  RUNWAY 35
Traffic pattern: leftleft

Airport Ownership and Management from official FAA records

Ownership: Privately-owned
Owner: USDA - FOREST SERVICE
WALLOWA-WHITMAN NATIONAL FOREST
LAGRANDE, OR 97850
Phone 541-975-5418
Manager: MILES HANCOCK
59973 DOWNS ROAD
LAGRANDE, OR 97850
Phone 541-975-5418

Instrument Procedures

There are no published instrument procedures at 1DA.

Some nearby airports with instrument procedures:

KGIC - Idaho County Airport (30 nm NE)
KMYL - Mc Call Municipal Airport (43 nm SE)
KLWS - Lewiston-Nez Perce County Airport (54 nm N)
KLGD - La Grande/Union County Airport (64 nm W)
KBKE - Baker City Municipal Airport (68 nm SW)
 
Loc | Ops | Rwys | IFR | FBO | Links
Com | Nav | Svcs | Stats | Notes
Aerial photo
No photo
 
Airport distance calculator
Flying to Big Bar Airport? Find the distance to fly.

From to 1DA

Sunrise and sunset
Times for 26-Mar-2019
 Zulu (UTC)
Morning civil twilight13:09
Sunrise13:39
Sunset02:05
Evening civil twilight02:35

Current date and time
Zulu (UTC)  26-Mar-2019 16:04:16
 
METAR
KGIC 
30nm NE 
261555Z AUTO 12009KT 7SM BKN009 OVC017 01/01 A3005 RMK AO1 P0005
KMYL 
43nm SE 
261551Z AUTO 12003KT 10SM -RA FEW013 OVC019 03/00 A2998 RMK AO2 SLP162 P0002 T00280000
TAF
KMYL 
43nm SE 
261125Z 2612/2712 VRB03KT 6SM -SHRASN BR OVC025 FM262000 18005KT 4SM -SHRA OVC025 FM270200 VRB03KT P6SM VCSH BKN060 FM271000 VRB03KT 4SM -RASN OVC015
NOTAMs
Click for the latest NOTAMs
NOTAMs are issued by the DoD/FAA and will open in a separate window not controlled by AirNav.

 

 
 

Would you like to see your business listed on this page?

 If your business provides an interesting product or service to pilots, flight crews, aircraft, or users of the Big Bar Airport, you should consider listing it here.  To start the listing process, click on the button below
 
Add a business
 

Other Pages about Big Bar Airport

Update a link
 
Copyright © AirNav, LLC. All rights reserved. Privacy Policy  Contact